sensor_id;sensor_type;location;lat;lon;timestamp;P1;durP1;ratioP1;P2;durP2;ratioP2
28547;SDS011;15750;49.600;8.746;2022-12-29T00:01:20;1.67;;;1.57;;
28547;SDS011;15750;49.600;8.746;2022-12-29T00:04:09;2.97;;;2.20;;
28547;SDS011;15750;49.600;8.746;2022-12-29T00:07:01;2.10;;;1.90;;
28547;SDS011;15750;49.600;8.746;2022-12-29T00:09:49;2.13;;;1.93;;
28547;SDS011;15750;49.600;8.746;2022-12-29T00:12:36;2.57;;;1.90;;
28547;SDS011;15750;49.600;8.746;2022-12-29T00:15:41;2.43;;;1.60;;
28547;SDS011;15750;49.600;8.746;2022-12-29T00:18:28;1.77;;;1.67;;
28547;SDS011;15750;49.600;8.746;2022-12-29T00:21:16;2.27;;;1.87;;
28547;SDS011;15750;49.600;8.746;2022-12-29T00:24:24;2.03;;;1.70;;
28547;SDS011;15750;49.600;8.746;2022-12-29T00:27:29;1.80;;;1.70;;
28547;SDS011;15750;49.600;8.746;2022-12-29T00:30:35;3.13;;;1.60;;
28547;SDS011;15750;49.600;8.746;2022-12-29T00:33:40;1.90;;;1.67;;
28547;SDS011;15750;49.600;8.746;2022-12-29T00:36:45;1.60;;;1.50;;
28547;SDS011;15750;49.600;8.746;2022-12-29T00:39:33;2.70;;;1.70;;
28547;SDS011;15750;49.600;8.746;2022-12-29T00:42:37;2.97;;;1.70;;
28547;SDS011;15750;49.600;8.746;2022-12-29T00:45:43;4.33;;;1.90;;
28547;SDS011;15750;49.600;8.746;2022-12-29T00:48:30;6.00;;;2.00;;
28547;SDS011;15750;49.600;8.746;2022-12-29T00:51:35;2.03;;;1.60;;
28547;SDS011;15750;49.600;8.746;2022-12-29T00:54:22;3.73;;;2.37;;
28547;SDS011;15750;49.600;8.746;2022-12-29T00:57:11;1.73;;;1.63;;
28547;SDS011;15750;49.600;8.746;2022-12-29T00:59:59;2.20;;;1.97;;
28547;SDS011;15750;49.600;8.746;2022-12-29T01:02:47;3.03;;;1.80;;
28547;SDS011;15750;49.600;8.746;2022-12-29T01:05:35;1.90;;;1.40;;
28547;SDS011;15750;49.600;8.746;2022-12-29T01:08:24;2.00;;;1.80;;
28547;SDS011;15750;49.600;8.746;2022-12-29T01:11:13;2.80;;;1.60;;
28547;SDS011;15750;49.600;8.746;2022-12-29T01:14:02;2.40;;;1.77;;
28547;SDS011;15750;49.600;8.746;2022-12-29T01:16:50;1.90;;;1.70;;
28547;SDS011;15750;49.600;8.746;2022-12-29T01:19:38;3.00;;;1.87;;
28547;SDS011;15750;49.600;8.746;2022-12-29T01:22:25;1.70;;;1.60;;
28547;SDS011;15750;49.600;8.746;2022-12-29T01:25:13;3.63;;;1.97;;
28547;SDS011;15750;49.600;8.746;2022-12-29T01:28:02;1.63;;;1.53;;
28547;SDS011;15750;49.600;8.746;2022-12-29T01:30:51;1.87;;;1.70;;
28547;SDS011;15750;49.600;8.746;2022-12-29T01:33:38;1.93;;;1.77;;
28547;SDS011;15750;49.600;8.746;2022-12-29T01:36:26;2.33;;;1.60;;
28547;SDS011;15750;49.600;8.746;2022-12-29T01:39:14;2.50;;;2.00;;
28547;SDS011;15750;49.600;8.746;2022-12-29T01:42:01;4.57;;;1.60;;
28547;SDS011;15750;49.600;8.746;2022-12-29T01:44:50;1.97;;;1.57;;
28547;SDS011;15750;49.600;8.746;2022-12-29T01:47:41;2.57;;;1.60;;
28547;SDS011;15750;49.600;8.746;2022-12-29T01:50:32;1.90;;;1.43;;
28547;SDS011;15750;49.600;8.746;2022-12-29T01:53:22;1.73;;;1.63;;
28547;SDS011;15750;49.600;8.746;2022-12-29T01:56:14;1.60;;;1.50;;
28547;SDS011;15750;49.600;8.746;2022-12-29T01:59:04;1.50;;;1.40;;
28547;SDS011;15750;49.600;8.746;2022-12-29T02:01:56;3.37;;;1.50;;
28547;SDS011;15750;49.600;8.746;2022-12-29T02:04:45;1.63;;;1.53;;
28547;SDS011;15750;49.600;8.746;2022-12-29T02:07:35;1.67;;;1.27;;
28547;SDS011;15750;49.600;8.746;2022-12-29T02:10:24;2.07;;;1.50;;
28547;SDS011;15750;49.600;8.746;2022-12-29T02:13:14;1.67;;;1.33;;
28547;SDS011;15750;49.600;8.746;2022-12-29T02:16:05;2.03;;;1.53;;
28547;SDS011;15750;49.600;8.746;2022-12-29T02:19:20;2.93;;;1.60;;
28547;SDS011;15750;49.600;8.746;2022-12-29T02:22:41;1.57;;;1.37;;
28547;SDS011;15750;49.600;8.746;2022-12-29T02:29:17;1.60;;;1.50;;
28547;SDS011;15750;49.600;8.746;2022-12-29T02:32:28;1.30;;;1.20;;
28547;SDS011;15750;49.600;8.746;2022-12-29T02:35:25;1.57;;;1.30;;
28547;SDS011;15750;49.600;8.746;2022-12-29T02:38:25;1.47;;;1.37;;
28547;SDS011;15750;49.600;8.746;2022-12-29T02:41:29;1.40;;;1.30;;
28547;SDS011;15750;49.600;8.746;2022-12-29T02:44:21;1.60;;;1.30;;
28547;SDS011;15750;49.600;8.746;2022-12-29T02:47:15;1.80;;;1.37;;
28547;SDS011;15750;49.600;8.746;2022-12-29T02:50:12;1.37;;;1.27;;
28547;SDS011;15750;49.600;8.746;2022-12-29T02:53:05;1.40;;;1.30;;
28547;SDS011;15750;49.600;8.746;2022-12-29T02:55:55;1.40;;;1.30;;
28547;SDS011;15750;49.600;8.746;2022-12-29T02:58:41;1.57;;;1.43;;
28547;SDS011;15750;49.600;8.746;2022-12-29T03:01:32;1.67;;;1.37;;
28547;SDS011;15750;49.600;8.746;2022-12-29T03:08:11;2.60;;;1.73;;
28547;SDS011;15750;49.600;8.746;2022-12-29T03:11:09;2.40;;;1.47;;
28547;SDS011;15750;49.600;8.746;2022-12-29T03:14:14;1.50;;;1.37;;
28547;SDS011;15750;49.600;8.746;2022-12-29T03:17:27;2.43;;;1.10;;
28547;SDS011;15750;49.600;8.746;2022-12-29T03:20:28;2.77;;;1.60;;
28547;SDS011;15750;49.600;8.746;2022-12-29T03:23:23;1.60;;;1.50;;
28547;SDS011;15750;49.600;8.746;2022-12-29T03:26:13;2.27;;;1.50;;
28547;SDS011;15750;49.600;8.746;2022-12-29T03:29:03;2.90;;;1.40;;
28547;SDS011;15750;49.600;8.746;2022-12-29T03:31:54;2.80;;;1.33;;
28547;SDS011;15750;49.600;8.746;2022-12-29T03:34:43;1.50;;;1.40;;
28547;SDS011;15750;49.600;8.746;2022-12-29T03:37:34;3.00;;;1.40;;
28547;SDS011;15750;49.600;8.746;2022-12-29T03:40:27;2.13;;;1.60;;
28547;SDS011;15750;49.600;8.746;2022-12-29T03:43:15;1.10;;;1.00;;
28547;SDS011;15750;49.600;8.746;2022-12-29T03:46:05;2.33;;;1.47;;
28547;SDS011;15750;49.600;8.746;2022-12-29T03:48:54;1.80;;;1.70;;
28547;SDS011;15750;49.600;8.746;2022-12-29T03:51:42;1.53;;;1.30;;
28547;SDS011;15750;49.600;8.746;2022-12-29T03:54:31;1.70;;;1.53;;
28547;SDS011;15750;49.600;8.746;2022-12-29T03:57:19;1.43;;;1.33;;
28547;SDS011;15750;49.600;8.746;2022-12-29T04:00:14;1.63;;;1.30;;
28547;SDS011;15750;49.600;8.746;2022-12-29T04:03:06;1.40;;;1.30;;
28547;SDS011;15750;49.600;8.746;2022-12-29T04:05:54;1.40;;;1.30;;
28547;SDS011;15750;49.600;8.746;2022-12-29T04:08:41;1.60;;;1.50;;
28547;SDS011;15750;49.600;8.746;2022-12-29T04:11:31;3.17;;;1.37;;
28547;SDS011;15750;49.600;8.746;2022-12-29T04:14:20;1.40;;;1.30;;
28547;SDS011;15750;49.600;8.746;2022-12-29T04:17:09;1.63;;;1.53;;
28547;SDS011;15750;49.600;8.746;2022-12-29T04:19:58;1.50;;;1.40;;
28547;SDS011;15750;49.600;8.746;2022-12-29T04:22:59;2.30;;;1.20;;
28547;SDS011;15750;49.600;8.746;2022-12-29T04:25:47;1.67;;;1.40;;
28547;SDS011;15750;49.600;8.746;2022-12-29T04:28:36;2.70;;;1.40;;
28547;SDS011;15750;49.600;8.746;2022-12-29T04:31:42;2.03;;;1.13;;
28547;SDS011;15750;49.600;8.746;2022-12-29T04:34:30;1.33;;;1.23;;
28547;SDS011;15750;49.600;8.746;2022-12-29T04:37:17;1.53;;;1.40;;
28547;SDS011;15750;49.600;8.746;2022-12-29T04:40:05;2.13;;;1.60;;
28547;SDS011;15750;49.600;8.746;2022-12-29T04:42:55;2.73;;;1.17;;
28547;SDS011;15750;49.600;8.746;2022-12-29T04:45:44;1.30;;;1.20;;
28547;SDS011;15750;49.600;8.746;2022-12-29T04:48:58;1.17;;;1.07;;
28547;SDS011;15750;49.600;8.746;2022-12-29T04:52:08;2.03;;;1.27;;
28547;SDS011;15750;49.600;8.746;2022-12-29T04:54:56;1.33;;;1.13;;
28547;SDS011;15750;49.600;8.746;2022-12-29T04:57:43;1.80;;;1.40;;
28547;SDS011;15750;49.600;8.746;2022-12-29T05:00:35;2.20;;;1.20;;
28547;SDS011;15750;49.600;8.746;2022-12-29T05:03:23;1.77;;;1.40;;
28547;SDS011;15750;49.600;8.746;2022-12-29T05:06:12;2.60;;;1.20;;
28547;SDS011;15750;49.600;8.746;2022-12-29T05:08:59;2.03;;;1.30;;
28547;SDS011;15750;49.600;8.746;2022-12-29T05:11:47;1.30;;;1.20;;
28547;SDS011;15750;49.600;8.746;2022-12-29T05:14:34;1.63;;;1.40;;
28547;SDS011;15750;49.600;8.746;2022-12-29T05:17:22;2.70;;;1.50;;
28547;SDS011;15750;49.600;8.746;2022-12-29T05:20:11;1.53;;;1.10;;
28547;SDS011;15750;49.600;8.746;2022-12-29T05:23:00;1.50;;;1.30;;
28547;SDS011;15750;49.600;8.746;2022-12-29T05:25:47;1.40;;;1.30;;
28547;SDS011;15750;49.600;8.746;2022-12-29T05:28:38;1.40;;;1.30;;
28547;SDS011;15750;49.600;8.746;2022-12-29T05:31:30;2.87;;;1.37;;
28547;SDS011;15750;49.600;8.746;2022-12-29T05:34:18;3.33;;;1.50;;
28547;SDS011;15750;49.600;8.746;2022-12-29T05:37:07;1.40;;;1.30;;
28547;SDS011;15750;49.600;8.746;2022-12-29T05:39:56;2.63;;;1.43;;
28547;SDS011;15750;49.600;8.746;2022-12-29T05:42:45;1.60;;;1.50;;
28547;SDS011;15750;49.600;8.746;2022-12-29T05:45:55;1.50;;;1.33;;
28547;SDS011;15750;49.600;8.746;2022-12-29T05:48:54;1.50;;;1.40;;
28547;SDS011;15750;49.600;8.746;2022-12-29T05:51:56;2.30;;;1.30;;
28547;SDS011;15750;49.600;8.746;2022-12-29T05:54:44;1.50;;;1.40;;
28547;SDS011;15750;49.600;8.746;2022-12-29T05:57:35;1.30;;;1.20;;
28547;SDS011;15750;49.600;8.746;2022-12-29T06:00:28;1.93;;;1.63;;
28547;SDS011;15750;49.600;8.746;2022-12-29T06:03:16;0.83;;;0.83;;
28547;SDS011;15750;49.600;8.746;2022-12-29T06:06:05;1.97;;;1.23;;
28547;SDS011;15750;49.600;8.746;2022-12-29T06:08:52;2.27;;;2.07;;
28547;SDS011;15750;49.600;8.746;2022-12-29T06:11:41;1.73;;;1.63;;
28547;SDS011;15750;49.600;8.746;2022-12-29T06:14:28;1.60;;;1.50;;
28547;SDS011;15750;49.600;8.746;2022-12-29T06:17:16;1.40;;;1.30;;
28547;SDS011;15750;49.600;8.746;2022-12-29T06:20:04;2.63;;;1.50;;
28547;SDS011;15750;49.600;8.746;2022-12-29T06:22:52;1.30;;;1.20;;
28547;SDS011;15750;49.600;8.746;2022-12-29T06:25:41;1.80;;;1.40;;
28547;SDS011;15750;49.600;8.746;2022-12-29T06:28:29;3.00;;;1.30;;
28547;SDS011;15750;49.600;8.746;2022-12-29T06:31:17;3.40;;;1.93;;
28547;SDS011;15750;49.600;8.746;2022-12-29T06:34:05;2.27;;;1.57;;
28547;SDS011;15750;49.600;8.746;2022-12-29T06:36:54;1.40;;;1.30;;
28547;SDS011;15750;49.600;8.746;2022-12-29T06:39:41;2.40;;;1.40;;
28547;SDS011;15750;49.600;8.746;2022-12-29T06:42:31;2.17;;;2.07;;
28547;SDS011;15750;49.600;8.746;2022-12-29T06:45:48;2.50;;;2.30;;
28547;SDS011;15750;49.600;8.746;2022-12-29T06:48:35;2.60;;;2.40;;
28547;SDS011;15750;49.600;8.746;2022-12-29T06:51:22;4.70;;;3.67;;
28547;SDS011;15750;49.600;8.746;2022-12-29T06:54:09;3.37;;;2.73;;
28547;SDS011;15750;49.600;8.746;2022-12-29T06:56:56;3.07;;;2.60;;
28547;SDS011;15750;49.600;8.746;2022-12-29T06:59:44;2.97;;;2.70;;
28547;SDS011;15750;49.600;8.746;2022-12-29T07:02:32;2.03;;;1.93;;
28547;SDS011;15750;49.600;8.746;2022-12-29T07:05:01;2.70;;;2.00;;
28547;SDS011;15750;49.600;8.746;2022-12-29T07:07:30;2.10;;;1.90;;
28547;SDS011;15750;49.600;8.746;2022-12-29T07:09:59;1.70;;;1.60;;
28547;SDS011;15750;49.600;8.746;2022-12-29T07:12:27;1.87;;;1.70;;
28547;SDS011;15750;49.600;8.746;2022-12-29T07:14:56;2.20;;;1.70;;
28547;SDS011;15750;49.600;8.746;2022-12-29T07:17:25;1.90;;;1.80;;
28547;SDS011;15750;49.600;8.746;2022-12-29T07:19:55;2.20;;;1.90;;
28547;SDS011;15750;49.600;8.746;2022-12-29T07:22:23;2.27;;;1.70;;
28547;SDS011;15750;49.600;8.746;2022-12-29T07:24:52;4.27;;;1.93;;
28547;SDS011;15750;49.600;8.746;2022-12-29T07:27:21;2.63;;;1.77;;
28547;SDS011;15750;49.600;8.746;2022-12-29T07:29:50;3.00;;;1.60;;
28547;SDS011;15750;49.600;8.746;2022-12-29T07:32:18;3.57;;;2.00;;
28547;SDS011;15750;49.600;8.746;2022-12-29T07:34:47;5.00;;;3.43;;
28547;SDS011;15750;49.600;8.746;2022-12-29T07:37:17;3.67;;;2.67;;
28547;SDS011;15750;49.600;8.746;2022-12-29T07:39:46;3.77;;;2.37;;
28547;SDS011;15750;49.600;8.746;2022-12-29T07:42:15;2.20;;;1.80;;
28547;SDS011;15750;49.600;8.746;2022-12-29T07:44:49;2.57;;;2.07;;
28547;SDS011;15750;49.600;8.746;2022-12-29T07:47:25;1.60;;;1.50;;
28547;SDS011;15750;49.600;8.746;2022-12-29T07:49:54;2.23;;;1.77;;
28547;SDS011;15750;49.600;8.746;2022-12-29T07:52:24;1.90;;;1.70;;
28547;SDS011;15750;49.600;8.746;2022-12-29T07:54:53;2.13;;;1.70;;
28547;SDS011;15750;49.600;8.746;2022-12-29T07:57:21;2.20;;;1.70;;
28547;SDS011;15750;49.600;8.746;2022-12-29T07:59:57;2.10;;;1.67;;
28547;SDS011;15750;49.600;8.746;2022-12-29T08:02:37;3.90;;;2.40;;
28547;SDS011;15750;49.600;8.746;2022-12-29T08:05:06;3.90;;;3.07;;
28547;SDS011;15750;49.600;8.746;2022-12-29T08:07:37;4.30;;;3.00;;
28547;SDS011;15750;49.600;8.746;2022-12-29T08:10:06;2.37;;;2.10;;
28547;SDS011;15750;49.600;8.746;2022-12-29T08:12:36;2.20;;;1.80;;
28547;SDS011;15750;49.600;8.746;2022-12-29T08:15:06;2.30;;;2.00;;
28547;SDS011;15750;49.600;8.746;2022-12-29T08:17:37;2.27;;;2.07;;
28547;SDS011;15750;49.600;8.746;2022-12-29T08:20:06;2.30;;;2.10;;
28547;SDS011;15750;49.600;8.746;2022-12-29T08:22:37;1.93;;;1.77;;
28547;SDS011;15750;49.600;8.746;2022-12-29T08:25:06;2.17;;;1.97;;
28547;SDS011;15750;49.600;8.746;2022-12-29T08:27:36;3.47;;;2.00;;
28547;SDS011;15750;49.600;8.746;2022-12-29T08:30:05;2.13;;;1.93;;
28547;SDS011;15750;49.600;8.746;2022-12-29T08:32:35;5.73;;;4.90;;
28547;SDS011;15750;49.600;8.746;2022-12-29T08:35:04;7.60;;;6.93;;
28547;SDS011;15750;49.600;8.746;2022-12-29T08:37:33;5.30;;;4.47;;
28547;SDS011;15750;49.600;8.746;2022-12-29T08:40:04;4.20;;;3.83;;
28547;SDS011;15750;49.600;8.746;2022-12-29T08:42:34;3.70;;;3.40;;
28547;SDS011;15750;49.600;8.746;2022-12-29T08:45:03;3.30;;;3.00;;
28547;SDS011;15750;49.600;8.746;2022-12-29T08:47:35;2.67;;;2.27;;
28547;SDS011;15750;49.600;8.746;2022-12-29T08:50:04;3.27;;;1.90;;
28547;SDS011;15750;49.600;8.746;2022-12-29T08:52:34;2.67;;;2.37;;
28547;SDS011;15750;49.600;8.746;2022-12-29T08:55:04;2.73;;;2.53;;
28547;SDS011;15750;49.600;8.746;2022-12-29T08:57:33;2.57;;;2.00;;
28547;SDS011;15750;49.600;8.746;2022-12-29T09:00:16;2.13;;;2.03;;
28547;SDS011;15750;49.600;8.746;2022-12-29T09:02:46;5.00;;;2.53;;
28547;SDS011;15750;49.600;8.746;2022-12-29T09:05:15;2.37;;;2.07;;
28547;SDS011;15750;49.600;8.746;2022-12-29T09:07:44;2.77;;;2.27;;
28547;SDS011;15750;49.600;8.746;2022-12-29T09:10:14;2.80;;;2.33;;
28547;SDS011;15750;49.600;8.746;2022-12-29T09:12:43;2.60;;;2.33;;
28547;SDS011;15750;49.600;8.746;2022-12-29T09:15:12;2.80;;;2.50;;
28547;SDS011;15750;49.600;8.746;2022-12-29T09:17:42;2.90;;;2.27;;
28547;SDS011;15750;49.600;8.746;2022-12-29T09:20:14;2.60;;;2.20;;
28547;SDS011;15750;49.600;8.746;2022-12-29T09:22:44;3.50;;;2.60;;
28547;SDS011;15750;49.600;8.746;2022-12-29T09:25:15;2.27;;;2.07;;
28547;SDS011;15750;49.600;8.746;2022-12-29T09:27:44;2.23;;;1.90;;
28547;SDS011;15750;49.600;8.746;2022-12-29T09:30:14;2.50;;;2.13;;
28547;SDS011;15750;49.600;8.746;2022-12-29T09:32:43;2.20;;;2.00;;
28547;SDS011;15750;49.600;8.746;2022-12-29T09:35:17;2.10;;;1.90;;
28547;SDS011;15750;49.600;8.746;2022-12-29T09:37:46;2.27;;;1.97;;
28547;SDS011;15750;49.600;8.746;2022-12-29T09:40:21;3.13;;;2.13;;
28547;SDS011;15750;49.600;8.746;2022-12-29T09:43:02;2.40;;;2.20;;
28547;SDS011;15750;49.600;8.746;2022-12-29T09:45:43;2.80;;;2.20;;
28547;SDS011;15750;49.600;8.746;2022-12-29T09:48:16;2.10;;;1.90;;
28547;SDS011;15750;49.600;8.746;2022-12-29T09:50:52;2.30;;;2.10;;
28547;SDS011;15750;49.600;8.746;2022-12-29T09:53:27;7.00;;;2.10;;
28547;SDS011;15750;49.600;8.746;2022-12-29T09:56:02;3.50;;;1.97;;
28547;SDS011;15750;49.600;8.746;2022-12-29T09:58:33;2.90;;;1.80;;
28547;SDS011;15750;49.600;8.746;2022-12-29T10:01:07;3.13;;;2.30;;
28547;SDS011;15750;49.600;8.746;2022-12-29T10:03:54;3.10;;;2.00;;
28547;SDS011;15750;49.600;8.746;2022-12-29T10:06:25;3.27;;;2.00;;
28547;SDS011;15750;49.600;8.746;2022-12-29T10:09:22;2.70;;;2.13;;
28547;SDS011;15750;49.600;8.746;2022-12-29T10:12:06;2.73;;;2.00;;
28547;SDS011;15750;49.600;8.746;2022-12-29T10:14:53;2.13;;;1.93;;
28547;SDS011;15750;49.600;8.746;2022-12-29T10:17:34;2.20;;;1.93;;
28547;SDS011;15750;49.600;8.746;2022-12-29T10:20:22;2.03;;;1.70;;
28547;SDS011;15750;49.600;8.746;2022-12-29T10:23:11;2.77;;;1.63;;
28547;SDS011;15750;49.600;8.746;2022-12-29T10:25:53;2.10;;;1.87;;
28547;SDS011;15750;49.600;8.746;2022-12-29T10:28:29;1.70;;;1.60;;
28547;SDS011;15750;49.600;8.746;2022-12-29T10:31:03;2.20;;;1.90;;
28547;SDS011;15750;49.600;8.746;2022-12-29T10:33:37;2.77;;;2.00;;
28547;SDS011;15750;49.600;8.746;2022-12-29T10:36:12;2.30;;;1.80;;
28547;SDS011;15750;49.600;8.746;2022-12-29T10:38:48;1.77;;;1.67;;
28547;SDS011;15750;49.600;8.746;2022-12-29T10:41:31;2.00;;;1.90;;
28547;SDS011;15750;49.600;8.746;2022-12-29T10:44:08;2.40;;;1.93;;
28547;SDS011;15750;49.600;8.746;2022-12-29T10:46:43;2.87;;;2.07;;
28547;SDS011;15750;49.600;8.746;2022-12-29T10:49:16;2.50;;;2.20;;
28547;SDS011;15750;49.600;8.746;2022-12-29T10:51:48;2.30;;;2.10;;
28547;SDS011;15750;49.600;8.746;2022-12-29T10:54:19;2.87;;;2.37;;
28547;SDS011;15750;49.600;8.746;2022-12-29T10:56:54;3.13;;;2.60;;
28547;SDS011;15750;49.600;8.746;2022-12-29T10:59:30;2.63;;;2.43;;
28547;SDS011;15750;49.600;8.746;2022-12-29T11:02:10;2.20;;;2.00;;
28547;SDS011;15750;49.600;8.746;2022-12-29T11:04:55;2.63;;;2.43;;
28547;SDS011;15750;49.600;8.746;2022-12-29T11:07:30;3.33;;;3.03;;
28547;SDS011;15750;49.600;8.746;2022-12-29T11:12:56;3.23;;;2.93;;
28547;SDS011;15750;49.600;8.746;2022-12-29T11:15:28;7.57;;;4.27;;
28547;SDS011;15750;49.600;8.746;2022-12-29T11:18:17;4.70;;;3.63;;
28547;SDS011;15750;49.600;8.746;2022-12-29T11:20:49;5.10;;;2.53;;
28547;SDS011;15750;49.600;8.746;2022-12-29T11:23:29;2.93;;;2.40;;
28547;SDS011;15750;49.600;8.746;2022-12-29T11:26:13;3.57;;;2.13;;
28547;SDS011;15750;49.600;8.746;2022-12-29T11:28:46;5.23;;;2.60;;
28547;SDS011;15750;49.600;8.746;2022-12-29T11:31:50;3.03;;;2.03;;
28547;SDS011;15750;49.600;8.746;2022-12-29T11:34:22;2.43;;;1.93;;
28547;SDS011;15750;49.600;8.746;2022-12-29T11:36:54;2.73;;;2.20;;
28547;SDS011;15750;49.600;8.746;2022-12-29T11:39:31;2.30;;;2.07;;
28547;SDS011;15750;49.600;8.746;2022-12-29T11:42:05;2.57;;;2.10;;
28547;SDS011;15750;49.600;8.746;2022-12-29T11:44:42;2.27;;;2.00;;
28547;SDS011;15750;49.600;8.746;2022-12-29T11:47:19;1.90;;;1.80;;
28547;SDS011;15750;49.600;8.746;2022-12-29T11:49:55;2.00;;;1.90;;
28547;SDS011;15750;49.600;8.746;2022-12-29T11:52:28;2.40;;;1.97;;
28547;SDS011;15750;49.600;8.746;2022-12-29T11:55:02;4.33;;;2.10;;
28547;SDS011;15750;49.600;8.746;2022-12-29T11:57:34;5.00;;;2.17;;
28547;SDS011;15750;49.600;8.746;2022-12-29T12:00:09;2.40;;;1.80;;
28547;SDS011;15750;49.600;8.746;2022-12-29T12:02:50;1.97;;;1.63;;
28547;SDS011;15750;49.600;8.746;2022-12-29T12:05:24;3.67;;;1.70;;
28547;SDS011;15750;49.600;8.746;2022-12-29T12:08:09;1.80;;;1.47;;
28547;SDS011;15750;49.600;8.746;2022-12-29T12:10:48;2.23;;;1.70;;
28547;SDS011;15750;49.600;8.746;2022-12-29T12:13:25;1.70;;;1.60;;
28547;SDS011;15750;49.600;8.746;2022-12-29T12:16:02;1.60;;;1.50;;
28547;SDS011;15750;49.600;8.746;2022-12-29T12:18:42;2.07;;;1.60;;
28547;SDS011;15750;49.600;8.746;2022-12-29T12:21:19;2.03;;;1.60;;
28547;SDS011;15750;49.600;8.746;2022-12-29T12:24:07;2.80;;;1.93;;
28547;SDS011;15750;49.600;8.746;2022-12-29T12:27:04;2.00;;;1.90;;
28547;SDS011;15750;49.600;8.746;2022-12-29T12:29:43;2.33;;;2.03;;
28547;SDS011;15750;49.600;8.746;2022-12-29T12:32:19;4.80;;;2.67;;
28547;SDS011;15750;49.600;8.746;2022-12-29T12:34:54;3.53;;;3.23;;
28547;SDS011;15750;49.600;8.746;2022-12-29T12:37:33;5.70;;;4.00;;
28547;SDS011;15750;49.600;8.746;2022-12-29T12:40:25;4.90;;;4.40;;
28547;SDS011;15750;49.600;8.746;2022-12-29T12:43:30;3.50;;;3.00;;
28547;SDS011;15750;49.600;8.746;2022-12-29T12:53:07;2.47;;;2.07;;
28547;SDS011;15750;49.600;8.746;2022-12-29T12:56:15;1.70;;;1.60;;
28547;SDS011;15750;49.600;8.746;2022-12-29T12:59:03;1.57;;;1.40;;
28547;SDS011;15750;49.600;8.746;2022-12-29T13:01:42;1.60;;;1.50;;
28547;SDS011;15750;49.600;8.746;2022-12-29T13:04:31;1.90;;;1.50;;
28547;SDS011;15750;49.600;8.746;2022-12-29T13:07:35;1.10;;;1.10;;
28547;SDS011;15750;49.600;8.746;2022-12-29T13:10:29;1.00;;;1.00;;
28547;SDS011;15750;49.600;8.746;2022-12-29T13:13:28;2.17;;;1.30;;
28547;SDS011;15750;49.600;8.746;2022-12-29T13:16:29;1.17;;;1.07;;
28547;SDS011;15750;49.600;8.746;2022-12-29T13:19:10;1.10;;;1.00;;
28547;SDS011;15750;49.600;8.746;2022-12-29T13:21:51;1.63;;;1.43;;
28547;SDS011;15750;49.600;8.746;2022-12-29T13:24:36;1.60;;;1.50;;
28547;SDS011;15750;49.600;8.746;2022-12-29T13:27:20;2.23;;;1.53;;
28547;SDS011;15750;49.600;8.746;2022-12-29T13:30:03;2.10;;;1.67;;
28547;SDS011;15750;49.600;8.746;2022-12-29T13:32:44;1.70;;;1.57;;
28547;SDS011;15750;49.600;8.746;2022-12-29T13:38:30;1.50;;;1.40;;
28547;SDS011;15750;49.600;8.746;2022-12-29T13:41:06;3.67;;;2.57;;
28547;SDS011;15750;49.600;8.746;2022-12-29T13:43:39;3.63;;;3.00;;
28547;SDS011;15750;49.600;8.746;2022-12-29T13:46:13;6.70;;;4.20;;
28547;SDS011;15750;49.600;8.746;2022-12-29T13:48:48;13.60;;;8.30;;
28547;SDS011;15750;49.600;8.746;2022-12-29T13:51:20;8.53;;;6.40;;
28547;SDS011;15750;49.600;8.746;2022-12-29T13:53:56;6.03;;;4.60;;
28547;SDS011;15750;49.600;8.746;2022-12-29T13:56:35;5.93;;;5.03;;
28547;SDS011;15750;49.600;8.746;2022-12-29T13:59:11;7.27;;;5.63;;
28547;SDS011;15750;49.600;8.746;2022-12-29T14:01:50;4.87;;;3.47;;
28547;SDS011;15750;49.600;8.746;2022-12-29T14:04:27;2.93;;;2.57;;
28547;SDS011;15750;49.600;8.746;2022-12-29T14:07:00;2.37;;;2.17;;
28547;SDS011;15750;49.600;8.746;2022-12-29T14:09:39;1.90;;;1.80;;
28547;SDS011;15750;49.600;8.746;2022-12-29T14:15:20;1.47;;;1.37;;
28547;SDS011;15750;49.600;8.746;2022-12-29T14:18:04;1.20;;;1.20;;
28547;SDS011;15750;49.600;8.746;2022-12-29T14:20:46;1.30;;;1.20;;
28547;SDS011;15750;49.600;8.746;2022-12-29T14:23:27;0.90;;;0.90;;
28547;SDS011;15750;49.600;8.746;2022-12-29T14:26:11;1.40;;;1.30;;
28547;SDS011;15750;49.600;8.746;2022-12-29T14:28:48;1.40;;;1.30;;
28547;SDS011;15750;49.600;8.746;2022-12-29T14:31:35;2.13;;;1.93;;
28547;SDS011;15750;49.600;8.746;2022-12-29T14:34:27;2.20;;;2.00;;
28547;SDS011;15750;49.600;8.746;2022-12-29T14:36:59;2.23;;;1.80;;
28547;SDS011;15750;49.600;8.746;2022-12-29T14:39:31;2.00;;;1.90;;
28547;SDS011;15750;49.600;8.746;2022-12-29T14:42:06;2.20;;;1.90;;
28547;SDS011;15750;49.600;8.746;2022-12-29T14:44:49;2.30;;;1.80;;
28547;SDS011;15750;49.600;8.746;2022-12-29T14:47:22;3.17;;;2.60;;
28547;SDS011;15750;49.600;8.746;2022-12-29T14:50:02;4.10;;;2.40;;
28547;SDS011;15750;49.600;8.746;2022-12-29T14:52:33;2.50;;;1.90;;
28547;SDS011;15750;49.600;8.746;2022-12-29T14:55:31;2.60;;;1.90;;
28547;SDS011;15750;49.600;8.746;2022-12-29T14:58:06;2.30;;;1.90;;
28547;SDS011;15750;49.600;8.746;2022-12-29T15:00:45;2.23;;;1.73;;
28547;SDS011;15750;49.600;8.746;2022-12-29T15:03:17;2.57;;;1.87;;
28547;SDS011;15750;49.600;8.746;2022-12-29T15:05:50;2.63;;;1.70;;
28547;SDS011;15750;49.600;8.746;2022-12-29T15:08:21;1.40;;;1.30;;
28547;SDS011;15750;49.600;8.746;2022-12-29T15:10:53;3.03;;;1.30;;
28547;SDS011;15750;49.600;8.746;2022-12-29T15:13:32;1.47;;;1.20;;
28547;SDS011;15750;49.600;8.746;2022-12-29T15:16:17;1.20;;;1.10;;
28547;SDS011;15750;49.600;8.746;2022-12-29T15:18:54;1.20;;;1.10;;
28547;SDS011;15750;49.600;8.746;2022-12-29T15:21:23;1.50;;;1.33;;
28547;SDS011;15750;49.600;8.746;2022-12-29T15:23:54;1.20;;;1.10;;
28547;SDS011;15750;49.600;8.746;2022-12-29T15:26:23;1.23;;;1.10;;
28547;SDS011;15750;49.600;8.746;2022-12-29T15:29:05;1.20;;;1.10;;
28547;SDS011;15750;49.600;8.746;2022-12-29T15:31:58;2.37;;;1.10;;
28547;SDS011;15750;49.600;8.746;2022-12-29T15:34:42;1.77;;;1.00;;
28547;SDS011;15750;49.600;8.746;2022-12-29T15:37:16;1.20;;;1.10;;
28547;SDS011;15750;49.600;8.746;2022-12-29T15:39:47;1.10;;;1.10;;
28547;SDS011;15750;49.600;8.746;2022-12-29T15:42:20;1.13;;;1.07;;
28547;SDS011;15750;49.600;8.746;2022-12-29T15:45:17;2.17;;;2.03;;
28547;SDS011;15750;49.600;8.746;2022-12-29T15:47:47;4.00;;;3.70;;
28547;SDS011;15750;49.600;8.746;2022-12-29T15:50:21;4.53;;;4.10;;
28547;SDS011;15750;49.600;8.746;2022-12-29T15:52:54;4.13;;;3.80;;
28547;SDS011;15750;49.600;8.746;2022-12-29T15:55:24;6.83;;;5.73;;
28547;SDS011;15750;49.600;8.746;2022-12-29T15:57:59;6.57;;;5.83;;
28547;SDS011;15750;49.600;8.746;2022-12-29T16:00:31;4.03;;;3.13;;
28547;SDS011;15750;49.600;8.746;2022-12-29T16:03:05;3.37;;;3.07;;
28547;SDS011;15750;49.600;8.746;2022-12-29T16:05:41;5.27;;;3.60;;
28547;SDS011;15750;49.600;8.746;2022-12-29T16:08:23;3.43;;;3.13;;
28547;SDS011;15750;49.600;8.746;2022-12-29T16:11:00;2.47;;;2.27;;
28547;SDS011;15750;49.600;8.746;2022-12-29T16:13:32;2.67;;;2.03;;
28547;SDS011;15750;49.600;8.746;2022-12-29T16:16:07;2.20;;;2.00;;
28547;SDS011;15750;49.600;8.746;2022-12-29T16:18:49;2.10;;;1.90;;
28547;SDS011;15750;49.600;8.746;2022-12-29T16:21:25;2.33;;;2.17;;
28547;SDS011;15750;49.600;8.746;2022-12-29T16:23:57;2.47;;;1.87;;
28547;SDS011;15750;49.600;8.746;2022-12-29T16:26:30;1.90;;;1.73;;
28547;SDS011;15750;49.600;8.746;2022-12-29T16:29:00;1.93;;;1.70;;
28547;SDS011;15750;49.600;8.746;2022-12-29T16:31:34;4.63;;;1.90;;
28547;SDS011;15750;49.600;8.746;2022-12-29T16:34:21;2.33;;;1.90;;
28547;SDS011;15750;49.600;8.746;2022-12-29T16:36:53;2.77;;;2.20;;
28547;SDS011;15750;49.600;8.746;2022-12-29T16:39:25;2.70;;;2.20;;
28547;SDS011;15750;49.600;8.746;2022-12-29T16:41:58;2.73;;;2.03;;
28547;SDS011;15750;49.600;8.746;2022-12-29T16:44:27;3.20;;;2.60;;